Time;durP1;ratioP1;P1;durP2;ratioP2;P2;SDS_P1;SDS_P2;PMS_P1;PMS_P2;Temp;Humidity;BMP_temperature;BMP_pressure;BME280_temperature;BME280_humidity;BME280_pressure;Samples;Min_cycle;Max_cycle;Signal;HPM_P1;HPM_P2
2022/05/03 00:00:23;;;;;;;0.38;0.38;;;;;;;12.73;54.99;102107.00;5052038;28;20384;-78
2022/05/03 00:03:14;;;;;;;0.65;0.65;;;;;;;12.80;54.56;102103.38;5052168;28;20029;-78
2022/05/03 00:06:00;;;;;;;0.00;0.00;;;;;;;12.75;55.39;102105.22;5053839;28;20035;-79
2022/05/03 00:11:29;;;;;;;0.03;0.03;;;;;;;12.70;54.34;102101.72;5049934;28;20923;-78
2022/05/03 00:16:48;;;;;;;0.70;0.70;;;;;;;12.62;55.48;102097.34;5102829;27;1177579;-78
2022/05/03 00:19:14;;;;;;;1.15;0.65;;;;;;;12.60;55.52;102091.13;5118773;28;20144;-77
2022/05/03 00:21:41;;;;;;;0.00;0.00;;;;;;;12.60;55.84;102093.78;5097750;28;20028;-78
2022/05/03 00:24:07;;;;;;;0.10;0.10;;;;;;;12.59;55.42;102094.69;5093184;28;20024;-78
2022/05/03 00:26:35;;;;;;;0.10;0.10;;;;;;;12.59;55.12;102100.00;5096487;28;20054;-77
2022/05/03 00:29:02;;;;;;;0.10;0.10;;;;;;;12.58;55.87;102098.22;5092787;28;20591;-78
2022/05/03 00:31:29;;;;;;;0.10;0.10;;;;;;;12.58;54.91;102097.38;5097574;28;20024;-78
2022/05/03 00:33:57;;;;;;;0.10;0.10;;;;;;;12.56;55.86;102092.06;5096899;28;20040;-77
2022/05/03 00:36:24;;;;;;;0.43;0.43;;;;;;;12.57;55.50;102095.59;5100147;28;20028;-78
2022/05/03 00:38:50;;;;;;;0.25;0.25;;;;;;;12.54;55.92;102091.19;5092411;28;20403;-78
2022/05/03 00:41:30;;;;;;;0.00;0.00;;;;;;;12.55;55.96;102084.97;5100625;28;20028;-78
2022/05/03 00:46:42;;;;;;;0.10;0.10;;;;;;;12.50;56.28;102091.22;5056573;28;20414;-77
2022/05/03 00:49:27;;;;;;;0.10;0.10;;;;;;;12.54;55.02;102092.97;5053277;28;20488;-78
2022/05/03 00:52:33;;;;;;;0.00;0.00;;;;;;;12.52;55.31;102095.63;5050519;28;20098;-76
2022/05/03 01:01:05;;;;;;;0.10;0.10;;;;;;;12.38;57.43;102089.56;5094543;27;20746;-78
2022/05/03 01:03:58;;;;;;;0.17;0.17;;;;;;;12.38;55.72;102094.88;5084435;28;20028;-77
2022/05/03 01:09:24;;;;;;;0.10;0.10;;;;;;;12.27;56.67;102090.53;5060600;28;20407;-78
2022/05/03 01:12:21;;;;;;;0.00;0.00;;;;;;;12.29;57.01;102096.69;5044984;28;20037;-77
2022/05/03 01:15:09;;;;;;;0.25;0.25;;;;;;;12.29;57.83;102099.34;5044439;28;20048;-77
2022/05/03 01:18:15;;;;;;;0.20;0.20;;;;;;;12.27;58.37;102095.84;5043978;28;20104;-78
2022/05/03 01:20:50;;;;;;;0.47;0.47;;;;;;;12.20;56.97;102091.44;5051590;28;20518;-77
2022/05/03 01:26:34;;;;;;;0.25;0.25;;;;;;;12.25;57.75;102092.28;5070788;28;20388;-78
2022/05/03 01:29:28;;;;;;;0.00;0.00;;;;;;;12.23;56.66;102087.88;5079212;28;20041;-78
2022/05/03 01:31:59;;;;;;;0.10;0.10;;;;;;;12.14;58.48;102096.81;5058968;28;20028;-78
2022/05/03 01:34:27;;;;;;;0.10;0.10;;;;;;;12.11;58.30;102091.50;5071179;28;20025;-77
2022/05/03 01:40:07;;;;;;;0.65;0.65;;;;;;;12.14;58.99;102072.91;5111786;27;20401;-78
2022/05/03 01:45:19;;;;;;;0.10;0.10;;;;;;;12.05;57.78;102080.91;5073497;28;21216;-80
2022/05/03 01:53:42;;;;;;;0.38;0.38;;;;;;;12.04;58.94;102084.47;5095790;27;20400;-78
2022/05/03 01:56:48;;;;;;;0.10;0.10;;;;;;;12.05;58.35;102078.25;5088111;28;20484;-78
2022/05/03 01:59:54;;;;;;;0.20;0.20;;;;;;;12.03;56.93;102072.09;5086093;28;20024;-77
2022/05/03 02:02:34;;;;;;;0.10;0.10;;;;;;;11.95;57.74;102075.63;5089339;28;20437;-78
2022/05/03 02:05:15;;;;;;;0.20;0.20;;;;;;;11.92;58.03;102070.31;5092417;28;20036;-78
2022/05/03 02:13:02;;;;;;;0.35;0.35;;;;;;;11.80;59.33;102076.59;5109665;27;20347;-77
2022/05/03 02:15:39;;;;;;;0.88;0.50;;;;;;;11.82;58.24;102076.59;5109928;28;20039;-78
2022/05/03 02:21:02;;;;;;;0.00;0.00;;;;;;;11.78;57.32;102070.41;5107453;27;20412;-77
2022/05/03 02:23:57;;;;;;;0.82;0.80;;;;;;;11.79;58.72;102076.63;5092897;28;20040;-78
2022/05/03 02:29:10;;;;;;;0.00;0.00;;;;;;;11.70;58.70;102074.00;5102159;27;20406;-78
2022/05/03 02:32:04;;;;;;;0.00;0.00;;;;;;;11.75;59.34;102077.50;5089065;28;20048;-77
2022/05/03 02:34:58;;;;;;;4.53;0.93;;;;;;;11.70;58.96;102079.31;5080587;28;20028;-78
2022/05/03 02:37:47;;;;;;;0.00;0.00;;;;;;;11.68;58.95;102083.75;5079346;28;20081;-77
2022/05/03 02:40:19;;;;;;;0.10;0.10;;;;;;;11.60;58.79;102084.66;5083621;28;20226;-78
2022/05/03 02:42:46;;;;;;;0.10;0.10;;;;;;;11.59;59.43;102082.91;5082722;28;20028;-78
2022/05/03 02:45:13;;;;;;;0.13;0.13;;;;;;;11.58;59.99;102074.94;5082520;28;20039;-78
2022/05/03 02:47:54;;;;;;;0.10;0.10;;;;;;;11.62;60.92;102082.88;5086556;28;20032;-78
2022/05/03 02:50:28;;;;;;;0.10;0.10;;;;;;;11.59;60.43;102082.91;5071378;28;20408;-77
2022/05/03 02:53:06;;;;;;;0.10;0.10;;;;;;;11.61;60.23;102081.13;5084304;28;20446;-77
2022/05/03 02:58:45;;;;;;;0.65;0.65;;;;;;;11.65;59.72;102074.91;5091421;27;20518;-78
2022/05/03 03:01:54;;;;;;;1.25;1.13;;;;;;;11.61;60.33;102078.47;5087240;28;20419;-77
2022/05/03 03:07:20;;;;;;;0.10;0.10;;;;;;;11.61;61.19;102075.81;5048647;28;20911;-77
2022/05/03 03:10:05;;;;;;;1.20;1.20;;;;;;;11.64;59.89;102072.25;5046232;28;20132;-77
2022/05/03 03:15:09;;;;;;;0.10;0.10;;;;;;;11.56;59.78;102072.28;5051599;27;20394;-77
2022/05/03 03:17:43;;;;;;;0.10;0.10;;;;;;;11.56;61.35;102077.59;5042331;28;20402;-77
2022/05/03 03:20:12;;;;;;;0.30;0.30;;;;;;;11.54;61.40;102076.72;5058728;27;20044;-76
2022/05/03 03:25:19;;;;;;;0.35;0.35;;;;;;;11.52;60.70;102067.00;5062728;28;20793;-78
2022/05/03 03:27:49;;;;;;;0.20;0.20;;;;;;;11.49;60.46;102071.44;5067938;28;20024;-78
2022/05/03 03:30:17;;;;;;;0.00;0.00;;;;;;;11.48;60.33;102072.31;5059732;28;20078;-78
2022/05/03 03:32:48;;;;;;;0.20;0.20;;;;;;;11.46;59.84;102070.56;5048200;28;20086;-78
2022/05/03 03:35:15;;;;;;;0.20;0.20;;;;;;;11.45;60.95;102063.47;5054646;28;20021;-77
2022/05/03 03:37:44;;;;;;;2.30;0.90;;;;;;;11.44;60.89;102062.59;5053256;28;20057;-77
2022/05/03 03:40:13;;;;;;;0.10;0.10;;;;;;;11.44;60.62;102067.91;5046306;28;20026;-77
2022/05/03 03:42:42;;;;;;;0.10;0.10;;;;;;;11.43;60.68;102070.59;5043766;28;20025;-78
2022/05/03 03:45:10;;;;;;;0.45;0.45;;;;;;;11.40;59.63;102059.97;5040389;28;20030;-78
2022/05/03 03:47:38;;;;;;;0.00;0.00;;;;;;;11.38;59.91;102067.06;5041306;28;20065;-78
2022/05/03 03:50:06;;;;;;;0.57;0.40;;;;;;;11.35;60.25;102069.72;5040978;28;20040;-78
2022/05/03 03:52:34;;;;;;;0.10;0.10;;;;;;;11.30;60.46;102065.31;5048460;28;20407;-78
2022/05/03 03:55:02;;;;;;;0.05;0.05;;;;;;;11.28;60.34;102069.75;5045143;28;20029;-78
2022/05/03 03:57:29;;;;;;;0.00;0.00;;;;;;;11.28;60.25;102072.38;5046558;28;20481;-77
2022/05/03 03:59:58;;;;;;;0.10;0.10;;;;;;;11.28;60.60;102069.75;5043640;28;20029;-77
2022/05/03 04:02:25;;;;;;;0.10;0.10;;;;;;;11.27;60.89;102062.66;5047542;28;20048;-77
2022/05/03 04:04:53;;;;;;;0.50;0.50;;;;;;;11.27;60.51;102069.75;5040309;28;20033;-78
2022/05/03 04:07:19;;;;;;;0.15;0.15;;;;;;;11.26;60.09;102068.84;5047583;28;20047;-78
2022/05/03 04:09:45;;;;;;;0.10;0.10;;;;;;;11.25;60.35;102067.09;5046374;28;20117;-78
2022/05/03 04:12:12;;;;;;;0.73;0.40;;;;;;;11.25;59.92;102064.47;5051294;28;20108;-77
2022/05/03 04:14:40;;;;;;;0.08;0.08;;;;;;;11.25;60.10;102064.47;5066746;28;20025;-77
2022/05/03 04:17:06;;;;;;;0.00;0.00;;;;;;;11.23;60.00;102068.88;5053476;28;20033;-78
2022/05/03 04:19:32;;;;;;;0.28;0.28;;;;;;;11.25;59.74;102071.50;5050952;28;20033;-78
2022/05/03 04:22:12;;;;;;;0.43;0.25;;;;;;;11.23;60.03;102063.56;5047309;28;20032;-78
2022/05/03 04:24:40;;;;;;;0.00;0.00;;;;;;;11.23;59.54;102063.56;5040858;28;20029;-77
2022/05/03 04:27:06;;;;;;;0.45;0.45;;;;;;;11.23;59.80;102063.56;5044010;28;20127;-78
2022/05/03 04:29:32;;;;;;;0.43;0.35;;;;;;;11.23;59.34;102058.25;5051718;28;20112;-77
2022/05/03 04:31:58;;;;;;;0.08;0.08;;;;;;;11.24;59.50;102070.66;5039204;28;20025;-77
2022/05/03 04:34:24;;;;;;;0.10;0.10;;;;;;;11.24;60.65;102067.09;5048256;28;20033;-76
2022/05/03 04:36:50;;;;;;;0.10;0.10;;;;;;;11.26;60.54;102083.91;5026981;28;20041;-78
2022/05/03 04:39:16;;;;;;;0.10;0.10;;;;;;;11.28;59.90;102066.22;5031157;28;20041;-77
2022/05/03 04:41:42;;;;;;;0.10;0.10;;;;;;;11.30;59.52;102070.63;5023848;28;20069;-78
2022/05/03 04:44:08;;;;;;;0.63;0.63;;;;;;;11.32;60.04;102073.25;5034276;28;20038;-77
2022/05/03 04:46:34;;;;;;;0.22;0.22;;;;;;;11.33;59.50;102067.94;5027706;28;20153;-77
2022/05/03 04:49:00;;;;;;;0.45;0.45;;;;;;;11.34;60.30;102068.84;5031125;28;20033;-77
2022/05/03 04:51:26;;;;;;;0.25;0.25;;;;;;;11.35;60.46;102072.38;5024971;28;20060;-77
2022/05/03 04:53:53;;;;;;;0.00;0.00;;;;;;;11.39;60.52;102074.13;5031667;28;20563;-78
2022/05/03 04:56:23;;;;;;;1.30;1.30;;;;;;;11.43;59.41;102075.91;5037491;28;20551;-77
2022/05/03 04:58:51;;;;;;;0.30;0.30;;;;;;;11.45;60.33;102071.44;5019645;28;20124;-77
2022/05/03 05:01:17;;;;;;;0.47;0.47;;;;;;;11.48;59.98;102068.78;5029565;28;20065;-78
2022/05/03 05:03:44;;;;;;;0.10;0.10;;;;;;;11.51;60.34;102074.06;5036725;28;20037;-78
2022/05/03 05:06:11;;;;;;;0.10;0.10;;;;;;;11.53;60.35;102077.59;5034144;28;20489;-78
2022/05/03 05:08:38;;;;;;;0.25;0.25;;;;;;;11.57;60.13;102079.34;5029787;28;20030;-77
2022/05/03 05:11:04;;;;;;;0.05;0.05;;;;;;;11.59;59.97;102088.22;5026734;28;20036;-77
2022/05/03 05:13:31;;;;;;;0.10;0.10;;;;;;;11.64;60.38;102083.75;5034748;28;20030;-78
2022/05/03 05:15:57;;;;;;;0.00;0.00;;;;;;;11.69;59.89;102083.75;5037709;28;20029;-77
2022/05/03 05:18:24;;;;;;;4.57;1.65;;;;;;;11.74;60.18;102087.25;5038512;28;20025;-78
2022/05/03 05:20:50;;;;;;;0.73;0.73;;;;;;;11.80;60.34;102094.28;5027162;28;20115;-78
2022/05/03 05:23:17;;;;;;;0.00;0.00;;;;;;;11.84;59.90;102088.09;5032304;28;20034;-77
2022/05/03 05:25:43;;;;;;;0.10;0.10;;;;;;;11.88;59.94;102086.31;5035977;28;20033;-78
2022/05/03 05:28:10;;;;;;;0.08;0.08;;;;;;;11.93;59.74;102090.69;5024869;28;20038;-78
2022/05/03 05:30:36;;;;;;;0.68;0.50;;;;;;;11.99;59.70;102087.16;5028024;28;20484;-78
2022/05/03 05:33:02;;;;;;;0.03;0.03;;;;;;;12.06;60.13;102093.31;5031164;28;20025;-78
2022/05/03 05:35:28;;;;;;;0.50;0.50;;;;;;;12.12;59.79;102093.25;5031488;28;20167;-78
2022/05/03 05:37:54;;;;;;;0.52;0.52;;;;;;;12.20;60.27;102090.53;5032227;28;20033;-77
2022/05/03 05:40:20;;;;;;;0.38;0.38;;;;;;;12.29;59.94;102087.84;5031334;28;20397;-78
2022/05/03 05:42:49;;;;;;;0.40;0.25;;;;;;;12.38;60.08;102092.22;5029837;28;20030;-78
2022/05/03 05:45:16;;;;;;;0.30;0.30;;;;;;;12.50;59.91;102092.13;5026015;28;20026;-78
2022/05/03 05:47:42;;;;;;;1.85;1.80;;;;;;;12.62;59.12;102096.44;5025066;28;20026;-78
2022/05/03 05:50:10;;;;;;;0.10;0.10;;;;;;;12.73;60.72;102099.00;5028668;28;20067;-78
2022/05/03 05:55:22;;;;;;;0.20;0.20;;;;;;;13.03;60.13;102089.84;5030203;28;20037;-78
2022/05/03 05:57:49;;;;;;;0.03;0.03;;;;;;;13.19;59.48;102095.03;5023235;28;20600;-77
2022/05/03 06:00:16;;;;;;;3.10;0.75;;;;;;;13.29;60.36;102098.47;5026936;28;20489;-78
2022/05/03 06:02:42;;;;;;;0.22;0.22;;;;;;;13.40;59.26;102089.47;5022436;28;20529;-78
2022/05/03 06:05:08;;;;;;;0.38;0.38;;;;;;;13.53;59.59;102090.22;5026860;28;20121;-78
2022/05/03 06:07:34;;;;;;;0.00;0.00;;;;;;;13.67;59.90;102091.81;5030900;28;20057;-77
2022/05/03 06:10:01;;;;;;;0.13;0.13;;;;;;;13.81;59.06;102100.50;5029558;28;20036;-78
2022/05/03 06:12:27;;;;;;;3.78;0.85;;;;;;;13.91;58.90;102096.81;5025146;28;20041;-78
2022/05/03 06:14:53;;;;;;;0.00;0.00;;;;;;;13.97;58.57;102094.97;5030080;28;20033;-78
2022/05/03 06:17:19;;;;;;;0.52;0.52;;;;;;;14.06;58.36;102101.03;5026280;28;20099;-78
2022/05/03 06:19:46;;;;;;;0.00;0.00;;;;;;;14.11;58.72;102098.31;5022457;28;20049;-78
2022/05/03 06:22:13;;;;;;;0.10;0.10;;;;;;;14.23;58.56;102098.13;5026765;28;20025;-78
2022/05/03 06:24:39;;;;;;;0.40;0.40;;;;;;;14.35;58.25;102105.06;5027729;28;20489;-78
2022/05/03 06:27:06;;;;;;;0.28;0.28;;;;;;;14.45;57.99;102097.78;5036691;28;20069;-78
2022/05/03 06:29:32;;;;;;;0.22;0.22;;;;;;;14.56;58.00;102101.16;5022623;28;20044;-78
2022/05/03 06:31:59;;;;;;;0.32;0.32;;;;;;;14.61;57.87;102108.22;5029815;28;20097;-78
2022/05/03 06:34:26;;;;;;;0.10;0.10;;;;;;;14.72;57.56;102103.63;5033041;28;20023;-78
2022/05/03 06:36:52;;;;;;;0.32;0.32;;;;;;;14.81;57.38;102111.44;5028646;28;20112;-78
2022/05/03 06:39:18;;;;;;;0.10;0.10;;;;;;;14.92;57.41;102107.72;5037528;28;20026;-78
2022/05/03 06:41:44;;;;;;;1.23;1.17;;;;;;;15.00;57.15;102104.00;5033530;28;20037;-78
2022/05/03 06:44:10;;;;;;;0.25;0.25;;;;;;;15.02;57.23;102110.19;5037043;28;20038;-79
2022/05/03 06:46:36;;;;;;;0.10;0.10;;;;;;;15.06;56.75;102107.47;5031262;28;20036;-78
2022/05/03 06:49:02;;;;;;;6.65;0.65;;;;;;;15.12;56.89;102105.56;5032952;28;20048;-78
2022/05/03 06:51:28;;;;;;;0.22;0.22;;;;;;;15.25;57.05;102116.00;5028572;28;20037;-78
2022/05/03 06:53:54;;;;;;;2.83;0.77;;;;;;;15.33;56.89;102114.06;5032018;28;20033;-78
2022/05/03 06:56:20;;;;;;;0.55;0.55;;;;;;;15.47;56.59;102125.34;5025420;28;20029;-78
2022/05/03 06:58:47;;;;;;;7.32;1.02;;;;;;;15.56;56.54;102118.06;5029253;28;20064;-78
2022/05/03 07:01:15;;;;;;;1.75;1.08;;;;;;;15.66;56.23;102117.88;5026481;28;20124;-78
2022/05/03 07:03:42;;;;;;;0.82;0.82;;;;;;;15.74;56.12;102112.34;5023232;28;20034;-78
2022/05/03 07:06:09;;;;;;;2.53;1.08;;;;;;;15.82;56.09;102114.88;5022148;28;20054;-78
2022/05/03 07:08:36;;;;;;;1.20;1.10;;;;;;;15.88;56.02;102117.41;5022580;28;20129;-78
2022/05/03 07:11:02;;;;;;;0.95;0.95;;;;;;;15.84;56.00;102116.59;5021222;28;20065;-78
2022/05/03 07:13:29;;;;;;;0.25;0.25;;;;;;;15.96;55.72;102114.56;5022327;28;21304;-78
2022/05/03 07:15:57;;;;;;;0.63;0.63;;;;;;;16.04;55.63;102117.97;5025104;28;20057;-78
2022/05/03 07:23:56;;;;;;;2.40;0.85;;;;;;;16.09;54.94;102110.72;5023892;28;20072;-78
2022/05/03 07:26:22;;;;;;;0.32;0.32;;;;;;;16.14;54.80;102113.28;5018556;28;20049;-78
2022/05/03 07:28:49;;;;;;;4.10;1.63;;;;;;;16.26;54.68;102112.13;5029656;28;20041;-78
2022/05/03 07:31:16;;;;;;;2.00;1.55;;;;;;;16.40;55.07;102119.81;5024931;28;20037;-78
2022/05/03 07:33:43;;;;;;;1.85;0.75;;;;;;;16.54;54.60;102122.16;5027635;28;20051;-77
2022/05/03 07:36:10;;;;;;;1.30;1.08;;;;;;;16.62;54.39;102120.16;5029606;28;21677;-78
2022/05/03 07:38:36;;;;;;;0.08;0.08;;;;;;;16.68;54.27;102125.34;5023138;28;20402;-78
2022/05/03 07:41:02;;;;;;;0.10;0.10;;;;;;;16.78;53.96;102123.34;5026642;28;20029;-78
2022/05/03 07:43:28;;;;;;;0.80;0.50;;;;;;;16.88;53.97;102122.16;5028917;28;20444;-77
2022/05/03 07:45:55;;;;;;;0.43;0.43;;;;;;;16.86;52.60;102117.78;5024813;28;20186;-78
2022/05/03 07:48:21;;;;;;;0.63;0.63;;;;;;;16.93;53.01;102119.41;5024050;28;20432;-78
2022/05/03 07:50:48;;;;;;;0.93;0.93;;;;;;;17.00;53.30;102118.34;5024394;28;20025;-78
2022/05/03 07:53:14;;;;;;;0.68;0.68;;;;;;;17.11;53.59;102118.06;5030919;28;20059;-78
2022/05/03 07:55:43;;;;;;;3.17;1.67;;;;;;;17.26;53.15;102120.31;5032601;28;20033;-78
2022/05/03 07:58:09;;;;;;;0.63;0.63;;;;;;;17.33;51.94;102112.97;5030780;28;20535;-78
2022/05/03 08:00:35;;;;;;;0.68;0.68;;;;;;;17.44;52.27;102116.22;5032619;28;20400;-78
2022/05/03 08:03:01;;;;;;;2.63;2.47;;;;;;;17.53;51.76;102112.38;5031532;28;20038;-77
2022/05/03 08:05:28;;;;;;;10.52;1.70;;;;;;;17.62;51.70;102113.94;5031557;28;20033;-78
2022/05/03 08:07:54;;;;;;;0.70;0.68;;;;;;;17.69;51.24;102109.28;5023726;28;20404;-78
2022/05/03 08:10:20;;;;;;;0.10;0.10;;;;;;;17.71;50.99;102107.44;5028892;28;20133;-78
2022/05/03 08:12:50;;;;;;;0.00;0.00;;;;;;;17.86;50.85;102112.31;5033799;28;20025;-78
2022/05/03 08:15:17;;;;;;;0.38;0.38;;;;;;;18.02;51.36;102120.81;5035341;28;20030;-78
2022/05/03 08:17:44;;;;;;;0.88;0.88;;;;;;;18.13;50.63;102124.97;5023706;28;20037;-78
2022/05/03 08:20:10;;;;;;;0.50;0.50;;;;;;;18.17;50.61;102122.13;5034210;28;20508;-78
2022/05/03 08:22:36;;;;;;;0.22;0.22;;;;;;;18.23;50.39;102121.94;5033170;28;20033;-78
2022/05/03 08:25:03;;;;;;;0.82;0.82;;;;;;;18.23;50.16;102127.31;5030710;28;20160;-77
2022/05/03 08:27:30;;;;;;;0.10;0.10;;;;;;;18.29;49.56;102126.22;5023736;28;20048;-78
2022/05/03 08:29:56;;;;;;;1.00;0.93;;;;;;;18.36;49.76;102130.47;5033283;28;20059;-79
2022/05/03 08:32:23;;;;;;;0.85;0.85;;;;;;;18.38;50.05;102131.31;5030580;28;20057;-78
2022/05/03 08:34:49;;;;;;;0.55;0.55;;;;;;;18.43;49.88;102129.34;5028483;28;20025;-78
2022/05/03 08:42:47;;;;;;;2.83;0.63;;;;;;;18.59;49.91;102128.84;5026824;28;20048;-79
2022/05/03 08:45:13;;;;;;;1.15;1.15;;;;;;;18.66;49.42;102130.38;5026841;28;20516;-79
2022/05/03 08:47:41;;;;;;;0.60;0.60;;;;;;;18.72;49.44;102130.19;5033072;28;20025;-79
2022/05/03 08:52:49;;;;;;;2.60;0.40;;;;;;;19.00;49.43;102129.25;5063309;27;20418;-76
2022/05/03 08:55:16;;;;;;;0.08;0.08;;;;;;;19.05;48.75;102138.06;5055034;28;20036;-78
2022/05/03 08:57:43;;;;;;;0.63;0.63;;;;;;;19.17;48.17;102133.19;5068318;28;20088;-78
2022/05/03 09:00:11;;;;;;;0.50;0.50;;;;;;;19.23;48.12;102131.13;5060677;28;20087;-78
2022/05/03 09:02:43;;;;;;;0.47;0.47;;;;;;;19.28;48.17;102130.97;5068816;28;20056;-78
2022/05/03 09:05:10;;;;;;;0.00;0.00;;;;;;;19.27;48.33;102136.41;5060715;28;20025;-79
2022/05/03 09:07:37;;;;;;;0.32;0.32;;;;;;;19.22;47.35;102132.06;5066356;28;20033;-78
2022/05/03 09:10:24;;;;;;;0.80;0.80;;;;;;;19.40;48.28;102133.22;5059405;28;20064;-79
2022/05/03 09:12:51;;;;;;;0.77;0.77;;;;;;;19.29;48.10;102132.75;5066549;28;20059;-79
2022/05/03 09:15:33;;;;;;;0.30;0.30;;;;;;;19.40;47.81;102137.69;5063222;28;20077;-79
2022/05/03 09:18:00;;;;;;;0.20;0.20;;;;;;;19.33;48.29;102147.81;5061032;28;20021;-78
2022/05/03 09:23:51;;;;;;;2.65;2.28;;;;;;;19.22;48.73;102139.25;5069773;28;20044;-82
2022/05/03 09:26:11;;;;;;;0.47;0.47;;;;;;;19.08;48.45;102135.25;5060931;28;20115;-79
2022/05/03 09:31:39;;;;;;;1.58;1.45;;;;;;;19.07;48.79;102136.16;5102266;27;20772;-78
2022/05/03 09:34:25;;;;;;;0.77;0.77;;;;;;;19.19;48.51;102131.28;5110090;28;20025;-78
2022/05/03 09:36:56;;;;;;;0.47;0.47;;;;;;;19.26;48.42;102129.28;5103830;28;20039;-77
2022/05/03 09:45:00;;;;;;;2.00;1.40;;;;;;;19.58;48.09;102124.50;5104763;27;20422;-76
2022/05/03 09:47:29;;;;;;;3.03;0.77;;;;;;;19.63;48.23;102119.88;5091100;28;20028;-79
2022/05/03 09:49:56;;;;;;;0.20;0.20;;;;;;;19.79;47.83;102125.50;5089021;28;20032;-78
2022/05/03 09:55:04;;;;;;;0.52;0.52;;;;;;;20.28;47.01;102120.91;5098720;27;20405;-78
2022/05/03 09:57:32;;;;;;;0.75;0.57;;;;;;;20.52;46.47;102120.84;5085714;28;20036;-78
2022/05/03 10:00:00;;;;;;;3.10;1.08;;;;;;;20.62;45.99;102118.66;5083255;28;20445;-79
2022/05/03 10:02:28;;;;;;;0.20;0.20;;;;;;;20.66;45.56;102122.94;5086350;28;20502;-79
2022/05/03 10:04:56;;;;;;;0.80;0.80;;;;;;;20.58;44.54;102117.03;5087801;28;20138;-79
2022/05/03 10:07:23;;;;;;;1.15;1.13;;;;;;;20.66;46.16;102114.88;5089281;28;20488;-79
2022/05/03 10:09:50;;;;;;;1.67;0.70;;;;;;;20.65;45.51;102124.78;5082708;28;20032;-78
2022/05/03 10:12:17;;;;;;;0.40;0.40;;;;;;;20.58;45.31;102123.28;5089295;28;20092;-79
2022/05/03 10:14:44;;;;;;;0.45;0.45;;;;;;;20.55;45.28;102117.16;5088121;28;20199;-79
2022/05/03 10:20:38;;;;;;;0.35;0.35;;;;;;;20.93;45.47;102112.84;5099833;27;20375;-76
2022/05/03 10:22:53;;;;;;;0.08;0.08;;;;;;;21.07;44.20;102112.25;5086088;28;20036;-76
2022/05/03 10:25:47;;;;;;;0.43;0.43;;;;;;;21.33;43.93;102112.91;5091976;28;20117;-76
2022/05/03 10:28:14;;;;;;;0.20;0.20;;;;;;;21.47;44.05;102106.88;5077244;28;20055;-76
2022/05/03 10:31:08;;;;;;;0.75;0.75;;;;;;;21.63;42.40;102102.56;5083566;28;20035;-79
2022/05/03 10:47:53;;;;;;;1.08;1.08;;;;;;;21.70;42.39;102105.84;5107060;27;20442;-77
2022/05/03 10:50:26;;;;;;;0.88;0.32;;;;;;;21.61;42.08;102103.59;5084486;28;20046;-76
2022/05/03 10:55:35;;;;;;;2.05;1.00;;;;;;;21.27;42.54;102095.19;5081324;27;20405;-77
2022/05/03 11:04:01;;;;;;;0.45;0.45;;;;;;;21.31;43.16;102099.50;5100611;27;20415;-77
2022/05/03 11:22:30;;;;;;;1.00;1.00;;;;;;;21.45;41.17;102079.97;5097763;27;20412;-77
2022/05/03 11:24:58;;;;;;;0.15;0.15;;;;;;;21.45;41.56;102077.28;5089563;28;20024;-79
2022/05/03 11:27:25;;;;;;;0.63;0.63;;;;;;;21.40;42.73;102079.31;5084938;28;20035;-78
2022/05/03 11:30:11;;;;;;;3.00;1.58;;;;;;;21.32;43.52;102077.00;5090175;28;20043;-79
2022/05/03 11:32:41;;;;;;;0.47;0.47;;;;;;;21.08;44.30;102081.66;5089960;28;20077;-78
2022/05/03 11:35:14;;;;;;;0.40;0.40;;;;;;;20.85;44.33;102075.47;5085553;28;20086;-78
2022/05/03 11:37:52;;;;;;;0.32;0.32;;;;;;;20.60;44.87;102089.09;5090263;28;20082;-78
2022/05/03 11:40:20;;;;;;;1.58;1.48;;;;;;;20.35;45.48;102087.44;5091832;28;20069;-78
2022/05/03 11:42:47;;;;;;;0.10;0.10;;;;;;;20.23;45.86;102092.47;5090724;28;20119;-78
2022/05/03 11:45:14;;;;;;;4.57;2.35;;;;;;;20.07;46.79;102084.13;5094315;28;20056;-77
2022/05/03 11:47:47;;;;;;;2.25;2.05;;;;;;;19.78;46.86;102088.81;5094965;28;20032;-78
2022/05/03 11:55:58;;;;;;;1.05;0.82;;;;;;;19.55;47.68;102087.88;5090302;28;20024;-78
2022/05/03 11:56:04;;;;;;;0.93;0.90;;;;;;;19.37;48.63;102092.13;5090866;28;20084;-78
2022/05/03 11:58:32;;;;;;;0.20;0.20;;;;;;;19.30;48.39;102088.81;5090400;28;20115;-78
2022/05/03 12:00:59;;;;;;;0.10;0.10;;;;;;;19.18;49.11;102083.88;5100430;28;20034;-78
2022/05/03 12:03:25;;;;;;;0.98;0.98;;;;;;;19.18;48.95;102076.69;5093960;28;20051;-78
2022/05/03 12:06:06;;;;;;;0.95;0.95;;;;;;;19.29;49.68;102070.94;5088003;28;20091;-78
2022/05/03 12:08:34;;;;;;;0.68;0.68;;;;;;;19.32;49.48;102068.13;5081935;28;20032;-79
2022/05/03 12:11:00;;;;;;;1.20;1.20;;;;;;;19.42;49.28;102065.97;5091289;28;20066;-78
2022/05/03 12:13:30;;;;;;;0.10;0.10;;;;;;;19.66;48.35;102066.81;5089712;28;20036;-78
2022/05/03 12:21:16;;;;;;;0.30;0.30;;;;;;;20.15;47.53;102066.72;5059522;28;20384;-76
2022/05/03 12:23:45;;;;;;;0.90;0.90;;;;;;;20.17;47.28;102069.34;5051055;28;20111;-75
2022/05/03 12:28:54;;;;;;;0.35;0.35;;;;;;;20.19;47.44;102076.41;5087955;27;20398;-76
2022/05/03 12:31:22;;;;;;;0.10;0.10;;;;;;;20.27;47.41;102072.53;5065953;28;20032;-77
2022/05/03 12:36:38;;;;;;;0.93;0.90;;;;;;;20.69;46.22;102080.63;5109749;27;20445;-76
2022/05/03 12:44:45;;;;;;;0.65;0.55;;;;;;;20.68;45.79;102076.16;5087757;27;20378;-79
2022/05/03 12:47:11;;;;;;;0.10;0.10;;;;;;;20.68;45.77;102078.00;5090685;28;20043;-79
2022/05/03 12:49:37;;;;;;;0.40;0.40;;;;;;;20.61;45.69;102076.50;5100278;28;20035;-78
2022/05/03 12:52:04;;;;;;;0.35;0.35;;;;;;;20.50;45.85;102068.91;5099562;28;20179;-79
2022/05/03 12:54:30;;;;;;;0.00;0.00;;;;;;;20.39;45.94;102063.06;5098330;28;20032;-77
2022/05/03 12:59:43;;;;;;;0.43;0.43;;;;;;;20.57;45.73;102067.66;5097253;28;20273;-78
2022/05/03 13:02:09;;;;;;;0.20;0.20;;;;;;;20.50;45.73;102056.31;5098246;28;20091;-76
2022/05/03 13:04:35;;;;;;;0.15;0.15;;;;;;;20.53;45.97;102055.28;5100358;28;20028;-78
2022/05/03 13:07:02;;;;;;;0.90;0.40;;;;;;;20.49;46.08;102062.63;5093744;28;20029;-79
2022/05/03 13:09:30;;;;;;;0.00;0.00;;;;;;;20.47;45.81;102056.44;5087069;28;20047;-78
2022/05/03 13:11:57;;;;;;;0.10;0.10;;;;;;;20.39;45.54;102052.28;5087823;28;20086;-78
2022/05/03 13:14:24;;;;;;;3.63;1.58;;;;;;;20.32;45.86;102057.94;5090100;28;20031;-79
2022/05/03 13:16:50;;;;;;;0.20;0.20;;;;;;;20.31;45.92;102055.31;5089049;28;20561;-79
2022/05/03 13:19:16;;;;;;;0.20;0.20;;;;;;;20.29;46.02;102058.09;5094847;28;20506;-79
2022/05/03 13:21:43;;;;;;;0.00;0.00;;;;;;;20.32;45.71;102060.63;5095354;28;20023;-79
2022/05/03 13:24:10;;;;;;;0.10;0.10;;;;;;;20.24;45.48;102054.72;5096732;28;20028;-79
2022/05/03 13:26:37;;;;;;;0.25;0.25;;;;;;;20.19;45.52;102056.72;5099017;28;20036;-78
2022/05/03 13:29:07;;;;;;;1.00;0.95;;;;;;;20.22;45.51;102050.34;5087074;28;20037;-79
2022/05/03 13:31:34;;;;;;;0.63;0.30;;;;;;;20.06;45.23;102048.25;5084799;28;20089;-77
2022/05/03 13:34:00;;;;;;;0.10;0.10;;;;;;;20.06;45.59;102056.31;5082490;28;20544;-78
2022/05/03 13:41:58;;;;;;;0.40;0.40;;;;;;;20.17;45.91;102047.81;5075775;28;20032;-77
2022/05/03 13:44:25;;;;;;;1.00;1.00;;;;;;;20.15;45.26;102055.06;5079333;28;20119;-78
2022/05/03 13:46:52;;;;;;;0.10;0.10;;;;;;;20.21;45.51;102049.44;5088828;28;20040;-78
2022/05/03 13:49:19;;;;;;;0.32;0.32;;;;;;;20.22;45.10;102051.19;5087287;28;20029;-77
2022/05/03 13:51:46;;;;;;;0.10;0.10;;;;;;;20.13;45.30;102046.22;5082922;28;20036;-77
2022/05/03 13:54:12;;;;;;;0.65;0.65;;;;;;;20.03;45.11;102045.72;5073861;28;20020;-79
2022/05/03 13:56:38;;;;;;;0.32;0.32;;;;;;;20.09;45.60;102044.56;5069546;28;20036;-76
2022/05/03 13:59:06;;;;;;;0.00;0.00;;;;;;;20.18;45.08;102054.97;5069568;28;20111;-77
2022/05/03 14:01:33;;;;;;;0.15;0.15;;;;;;;20.20;45.00;102047.72;5067705;28;20118;-79
2022/05/03 14:04:02;;;;;;;0.90;0.85;;;;;;;20.31;45.01;102047.25;5069685;28;20020;-79
2022/05/03 14:06:29;;;;;;;0.32;0.32;;;;;;;20.34;44.36;102048.00;5076815;28;20496;-76
2022/05/03 14:08:55;;;;;;;0.20;0.20;;;;;;;20.30;44.36;102054.47;5078203;28;20487;-78
2022/05/03 14:11:21;;;;;;;0.95;0.90;;;;;;;20.26;44.37;102052.84;5071291;28;20102;-78